Time;durP1;ratioP1;P1;durP2;ratioP2;P2;SDS_P1;SDS_P2;PMS_P1;PMS_P2;Temp;Humidity;BMP_temperature;BMP_pressure;BME280_temperature;BME280_humidity;BME280_pressure;Samples;Min_cycle;Max_cycle;Signal;HPM_P1;HPM_P2
2022/02/03 00:01:17;;;;;;;11.00;3.23;;;;;;;2.01;80.74;101289.91;5023495;28;20252;-81
2022/02/03 00:03:51;;;;;;;14.27;3.57;;;;;;;2.09;81.44;101299.41;5016169;28;20233;-80
2022/02/03 00:06:28;;;;;;;12.87;3.13;;;;;;;2.17;81.20;101301.00;5026757;28;20195;-82
2022/02/03 00:09:17;;;;;;;9.33;2.90;;;;;;;2.23;81.79;101290.41;5019411;28;20230;-81
2022/02/03 00:16:12;;;;;;;8.93;2.87;;;;;;;2.27;81.65;101286.81;5023140;28;20285;-81
2022/02/03 00:23:05;;;;;;;5.67;2.43;;;;;;;2.35;82.68;101272.63;5036486;28;20283;-81
2022/02/03 00:25:40;;;;;;;6.60;2.70;;;;;;;2.37;82.21;101280.47;5038450;28;20272;-81
2022/02/03 00:28:12;;;;;;;10.17;2.50;;;;;;;2.36;82.03;101268.22;5022625;28;20231;-80
2022/02/03 00:31:02;;;;;;;8.43;2.63;;;;;;;2.37;82.17;101273.47;5033610;28;20840;-81
2022/02/03 00:33:35;;;;;;;8.70;2.10;;;;;;;2.41;82.67;101269.00;5026806;28;20210;-81
2022/02/03 00:36:11;;;;;;;8.07;2.60;;;;;;;2.45;82.74;101270.69;5031223;28;20226;-82
2022/02/03 00:50:05;;;;;;;12.40;2.50;;;;;;;2.80;84.07;101246.28;5029382;28;20237;-82
2022/02/03 00:52:35;;;;;;;8.20;2.43;;;;;;;2.88;84.00;101244.31;5029132;28;20606;-82
2022/02/03 00:55:01;;;;;;;13.50;3.00;;;;;;;2.93;83.77;101237.22;5026478;28;20215;-82
2022/02/03 00:57:34;;;;;;;10.80;2.27;;;;;;;2.97;83.42;101225.72;5031041;28;20225;-82
2022/02/03 01:00:06;;;;;;;5.77;2.30;;;;;;;3.02;83.98;101220.34;5018049;28;20214;-81
2022/02/03 01:02:38;;;;;;;8.87;2.67;;;;;;;3.07;83.81;101221.97;5036898;28;20232;-82
2022/02/03 01:05:05;;;;;;;10.50;2.33;;;;;;;3.11;83.74;101222.75;5022755;28;20209;-82
2022/02/03 01:07:36;;;;;;;7.50;2.17;;;;;;;3.14;83.33;101220.06;5021717;28;20300;-82
2022/02/03 01:10:09;;;;;;;8.77;2.20;;;;;;;3.17;83.36;101221.75;5034850;28;20336;-83
2022/02/03 01:12:46;;;;;;;7.37;2.30;;;;;;;3.18;83.33;101216.47;5029365;28;20289;-81
2022/02/03 01:15:21;;;;;;;10.20;2.20;;;;;;;3.21;83.64;101215.53;5033558;28;20202;-82
2022/02/03 01:18:03;;;;;;;11.47;2.10;;;;;;;3.23;83.98;101211.06;5034449;28;20696;-82
2022/02/03 01:34:36;;;;;;;13.43;2.30;;;;;;;3.34;83.17;101199.38;5023372;28;20201;-82
2022/02/03 01:37:20;;;;;;;10.83;2.63;;;;;;;3.36;83.33;101194.94;5036585;28;20220;-82
2022/02/03 01:45:23;;;;;;;10.93;3.07;;;;;;;3.41;83.42;101177.25;5026870;28;20213;-82
2022/02/03 01:48:05;;;;;;;11.97;3.43;;;;;;;3.44;83.58;101171.03;5033130;28;20239;-82
2022/02/03 01:53:22;;;;;;;13.33;2.53;;;;;;;3.55;83.38;101163.75;5024659;28;20204;-83
2022/02/03 01:55:55;;;;;;;14.60;3.07;;;;;;;3.61;84.29;101158.31;5024899;28;20245;-82
2022/02/03 01:58:31;;;;;;;12.67;3.50;;;;;;;3.69;84.54;101158.09;5034154;28;20284;-82
2022/02/03 02:01:00;;;;;;;12.27;3.27;;;;;;;3.74;84.03;101156.22;5034590;28;20212;-81
2022/02/03 02:03:36;;;;;;;13.10;3.47;;;;;;;3.80;84.31;101142.84;5035616;28;20218;-83
2022/02/03 02:06:14;;;;;;;13.00;3.73;;;;;;;3.86;83.79;101137.44;5036387;28;20209;-82
2022/02/03 02:08:46;;;;;;;12.60;3.77;;;;;;;3.89;83.95;101131.22;5024714;28;20230;-82
2022/02/03 02:11:34;;;;;;;15.17;4.57;;;;;;;3.94;84.27;101126.69;5027976;28;20276;-82
2022/02/03 02:14:16;;;;;;;12.23;3.90;;;;;;;3.97;84.04;101123.94;5035064;28;20217;-82
2022/02/03 02:19:45;;;;;;;14.30;3.70;;;;;;;4.06;84.08;101127.19;4982313;28;20608;-82
2022/02/03 02:39:01;;;;;;;16.10;5.30;;;;;;;4.32;84.86;101110.59;5035464;28;20256;-81
2022/02/03 02:44:30;;;;;;;19.00;5.77;;;;;;;4.38;85.42;101106.91;5033727;28;20217;-81
2022/02/03 02:46:57;;;;;;;20.50;5.37;;;;;;;4.39;85.60;101114.78;5036930;28;20205;-81
2022/02/03 02:49:27;;;;;;;19.20;6.33;;;;;;;4.40;85.50;101108.59;5046105;28;20263;-81
2022/02/03 02:52:00;;;;;;;19.53;7.00;;;;;;;4.42;85.41;101103.28;5020008;28;20289;-81
2022/02/03 02:54:53;;;;;;;19.30;6.27;;;;;;;4.43;86.13;101089.19;5029396;28;20272;-81
2022/02/03 02:57:58;;;;;;;18.57;5.73;;;;;;;4.43;86.25;101081.25;5015588;28;20283;-81
2022/02/03 03:31:26;;;;;;;26.37;7.97;;;;;;;4.39;87.85;101043.56;4978446;28;20239;-82
2022/02/03 03:34:02;;;;;;;21.83;7.50;;;;;;;4.40;88.21;101040.03;5007739;28;20664;-82
2022/02/03 03:36:31;;;;;;;21.90;7.07;;;;;;;4.42;88.02;101039.97;5025191;28;20250;-82
2022/02/03 03:39:00;;;;;;;16.83;6.70;;;;;;;4.45;88.50;101042.53;5033829;28;20226;-82
2022/02/03 03:41:27;;;;;;;15.73;7.00;;;;;;;4.45;88.80;101037.25;5017414;28;20217;-82
2022/02/03 03:44:03;;;;;;;19.73;7.63;;;;;;;4.46;88.89;101033.72;5028022;28;20209;-82
2022/02/03 03:46:34;;;;;;;18.70;6.90;;;;;;;4.46;88.70;101031.06;5032783;28;20243;-82
2022/02/03 03:49:05;;;;;;;22.03;7.70;;;;;;;4.50;89.55;101035.31;5033644;28;20661;-82
2022/02/03 03:51:38;;;;;;;22.23;7.20;;;;;;;4.51;89.44;101031.75;5020460;28;20293;-82
2022/02/03 03:54:10;;;;;;;16.30;6.73;;;;;;;4.52;89.60;101015.03;5034236;28;20217;-83
2022/02/03 03:56:46;;;;;;;18.17;6.73;;;;;;;4.53;89.83;101007.06;5034561;28;20221;-83
2022/02/03 04:43:18;;;;;;;8.80;3.70;;;;;;;4.77;92.72;100986.94;5022905;28;20210;-82
2022/02/03 04:52:48;;;;;;;7.20;4.07;;;;;;;4.78;93.23;100982.50;5020657;28;20198;-83
2022/02/03 04:58:31;;;;;;;9.13;4.53;;;;;;;4.80;93.77;100972.78;5022029;28;20287;-83
2022/02/03 05:04:18;;;;;;;7.50;3.77;;;;;;;4.82;93.97;100960.38;5022941;28;20206;-83
2022/02/03 05:07:14;;;;;;;8.53;3.67;;;;;;;4.83;94.25;100965.63;5022893;28;20195;-83
2022/02/03 05:10:04;;;;;;;8.03;4.27;;;;;;;4.84;94.12;100948.84;5029013;28;20276;-82
2022/02/03 05:13:00;;;;;;;6.43;3.80;;;;;;;4.86;94.36;100956.69;5028911;28;20219;-82
2022/02/03 05:15:56;;;;;;;5.97;3.03;;;;;;;4.86;94.62;100952.28;5020782;28;20290;-82
2022/02/03 05:19:02;;;;;;;9.70;4.37;;;;;;;4.88;94.51;100945.19;5020064;28;20868;-83
2022/02/03 05:43:35;;;;;;;4.53;3.67;;;;;;;5.02;95.25;100930.63;5025815;28;20271;-83
2022/02/03 05:49:17;;;;;;;5.63;3.93;;;;;;;5.06;95.16;100938.38;5024348;28;20234;-83
2022/02/03 05:52:06;;;;;;;5.50;4.03;;;;;;;5.09;95.60;100937.41;5025338;28;20668;-83
2022/02/03 05:54:56;;;;;;;5.97;4.17;;;;;;;5.10;95.56;100932.09;5030116;28;20668;-83
2022/02/03 06:05:52;;;;;;;11.63;5.37;;;;;;;5.15;96.18;100927.50;5025188;28;20206;-83
2022/02/03 06:08:24;;;;;;;6.87;5.07;;;;;;;5.18;95.93;100929.19;5024066;28;20233;-83
2022/02/03 06:13:42;;;;;;;7.53;5.43;;;;;;;5.18;95.99;100926.53;5023605;28;20692;-83
2022/02/03 06:16:33;;;;;;;11.80;5.60;;;;;;;5.20;96.23;100922.91;5032332;28;20284;-83
2022/02/03 06:21:51;;;;;;;8.77;5.70;;;;;;;5.26;96.39;100921.81;5021457;28;20209;-84
2022/02/03 06:24:31;;;;;;;7.87;5.47;;;;;;;5.28;96.46;100925.25;5027547;28;20217;-84
2022/02/03 06:29:49;;;;;;;8.20;5.70;;;;;;;5.32;96.35;100912.81;5025024;28;20256;-84
2022/02/03 06:32:17;;;;;;;7.73;5.17;;;;;;;5.34;96.29;100908.34;5024821;28;20216;-83
2022/02/03 06:34:43;;;;;;;7.23;5.10;;;;;;;5.34;96.21;100908.34;5026373;28;20206;-83
2022/02/03 06:37:10;;;;;;;7.10;4.83;;;;;;;5.35;96.53;100910.06;5022229;28;20244;-84
2022/02/03 06:39:37;;;;;;;8.67;5.63;;;;;;;5.35;96.36;100902.13;5023606;28;20223;-84
2022/02/03 06:42:06;;;;;;;8.13;5.33;;;;;;;5.37;96.64;100906.44;5022141;28;20293;-84
2022/02/03 06:44:37;;;;;;;9.97;5.60;;;;;;;5.38;96.91;100892.28;5019257;28;20207;-85
2022/02/03 06:47:10;;;;;;;6.63;5.33;;;;;;;5.39;97.32;100887.88;5023739;28;20662;-85
2022/02/03 06:49:47;;;;;;;6.67;5.40;;;;;;;5.40;96.62;100887.81;5022433;28;20226;-84
2022/02/03 06:52:19;;;;;;;6.43;4.80;;;;;;;5.42;96.89;100880.69;5028374;28;20194;-84
2022/02/03 06:54:57;;;;;;;7.37;5.97;;;;;;;5.44;96.88;100883.28;5021760;28;20206;-84
2022/02/03 06:57:30;;;;;;;8.93;5.33;;;;;;;5.46;97.15;100877.03;5017838;28;20309;-84
2022/02/03 07:00:00;;;;;;;8.27;5.43;;;;;;;5.48;96.71;100871.69;5018500;28;20195;-84
2022/02/03 07:02:33;;;;;;;7.70;5.77;;;;;;;5.50;97.31;100877.78;5023079;28;20257;-84
2022/02/03 07:05:01;;;;;;;6.80;6.10;;;;;;;5.52;97.10;100875.94;5018850;28;20198;-84
2022/02/03 07:07:27;;;;;;;9.53;6.33;;;;;;;5.53;97.21;100873.25;5024059;28;20716;-84
2022/02/03 07:09:54;;;;;;;7.83;6.20;;;;;;;5.54;97.30;100879.38;5026185;28;20230;-82
2022/02/03 07:12:22;;;;;;;8.30;6.60;;;;;;;5.59;97.38;100888.84;5026286;28;20413;-82
2022/02/03 07:14:49;;;;;;;6.60;5.90;;;;;;;5.59;97.64;100875.63;5025621;28;20207;-84
2022/02/03 07:17:15;;;;;;;9.97;6.33;;;;;;;5.62;97.32;100882.56;5022601;28;20226;-85
2022/02/03 07:19:46;;;;;;;7.37;6.00;;;;;;;5.66;97.59;100883.31;5021574;28;20222;-85
2022/02/03 07:22:14;;;;;;;8.40;6.60;;;;;;;5.68;97.73;100877.06;5026316;28;20731;-85
2022/02/03 07:24:41;;;;;;;11.40;6.53;;;;;;;5.70;97.52;100875.22;5030822;28;20293;-84
2022/02/03 07:27:08;;;;;;;7.23;5.77;;;;;;;5.74;97.59;100881.22;5023924;28;20210;-85
2022/02/03 07:29:34;;;;;;;8.50;6.53;;;;;;;5.76;97.70;100884.66;5027929;28;20313;-84
2022/02/03 07:32:02;;;;;;;7.47;6.17;;;;;;;5.78;97.96;100877.53;5026026;28;20209;-84
2022/02/03 07:34:29;;;;;;;8.87;6.43;;;;;;;5.78;98.12;100882.81;5021330;28;20207;-84
2022/02/03 07:36:57;;;;;;;7.50;5.77;;;;;;;5.79;97.85;100879.25;5026491;28;20226;-84
2022/02/03 07:39:25;;;;;;;9.23;6.47;;;;;;;5.79;98.13;100876.63;5018559;28;20285;-84
2022/02/03 07:41:52;;;;;;;8.47;6.87;;;;;;;5.82;97.60;100873.84;5021550;28;20210;-84
2022/02/03 07:44:19;;;;;;;9.23;6.67;;;;;;;5.83;97.87;100880.88;5021977;28;20217;-84
2022/02/03 07:46:46;;;;;;;8.87;6.83;;;;;;;5.83;97.75;100871.16;5025896;28;20205;-84
2022/02/03 07:49:12;;;;;;;7.83;6.10;;;;;;;5.88;98.24;100876.25;5019614;28;20231;-84
2022/02/03 07:51:39;;;;;;;8.13;6.47;;;;;;;5.90;97.75;100877.09;5023506;28;20206;-84
2022/02/03 07:54:08;;;;;;;7.00;6.00;;;;;;;5.92;97.75;100880.50;5025561;28;20209;-84
2022/02/03 07:56:36;;;;;;;7.87;5.73;;;;;;;5.96;97.50;100886.53;5017848;28;20214;-83
2022/02/03 07:59:03;;;;;;;6.67;5.57;;;;;;;5.97;98.03;100881.19;5030112;28;20276;-84
2022/02/03 08:01:29;;;;;;;8.33;6.30;;;;;;;5.97;98.01;100891.78;5025380;28;20206;-84
2022/02/03 08:03:58;;;;;;;7.10;6.00;;;;;;;5.98;97.61;100882.91;5034053;28;20213;-81
2022/02/03 08:06:29;;;;;;;8.43;6.17;;;;;;;6.00;98.05;100889.00;5033609;28;20738;-83
2022/02/03 08:09:01;;;;;;;8.07;6.03;;;;;;;6.04;97.74;100895.03;5018410;28;20231;-81
2022/02/03 08:11:33;;;;;;;8.70;6.97;;;;;;;6.04;98.01;100884.47;5025042;28;20230;-82
2022/02/03 08:14:08;;;;;;;8.53;6.70;;;;;;;6.05;97.97;100883.53;5026349;28;20202;-81
2022/02/03 08:16:38;;;;;;;8.13;6.60;;;;;;;6.07;97.59;100879.91;5034821;28;20274;-82
2022/02/03 08:19:10;;;;;;;8.57;7.53;;;;;;;6.08;98.36;100865.78;5031882;28;20234;-84
2022/02/03 08:21:42;;;;;;;7.77;6.63;;;;;;;6.11;97.82;100875.34;5034847;28;20225;-84
2022/02/03 08:27:23;;;;;;;9.67;6.10;;;;;;;6.13;97.59;100860.28;5014338;28;20628;-84
2022/02/03 08:30:25;;;;;;;7.63;6.37;;;;;;;6.12;97.70;100867.34;5033304;28;20206;-83
2022/02/03 08:32:56;;;;;;;8.20;6.33;;;;;;;6.14;97.80;100856.69;5019814;28;20205;-84
2022/02/03 08:35:34;;;;;;;8.93;6.77;;;;;;;6.16;98.36;100849.56;5031464;28;20213;-83
2022/02/03 08:38:07;;;;;;;8.13;6.10;;;;;;;6.17;98.34;100861.88;5022117;28;20261;-83
2022/02/03 08:40:44;;;;;;;8.67;6.40;;;;;;;6.18;97.92;100861.81;5019799;28;20700;-84
2022/02/03 08:43:11;;;;;;;8.00;6.40;;;;;;;6.22;97.87;100858.13;5018525;28;20229;-83
2022/02/03 08:45:39;;;;;;;8.93;6.10;;;;;;;6.26;97.62;100856.22;5033146;28;20210;-83
2022/02/03 08:48:06;;;;;;;8.53;6.80;;;;;;;6.28;98.27;100856.97;5028516;28;20584;-83
2022/02/03 08:50:33;;;;;;;7.73;5.87;;;;;;;6.32;98.31;100855.06;5030322;28;20217;-82
2022/02/03 08:53:05;;;;;;;7.40;6.17;;;;;;;6.33;98.18;100844.44;5016935;28;20217;-82
2022/02/03 08:55:39;;;;;;;7.23;5.97;;;;;;;6.36;97.93;100838.16;5031544;28;20210;-81
2022/02/03 08:58:33;;;;;;;8.30;5.93;;;;;;;6.38;98.33;100833.66;5030298;28;20598;-81
2022/02/03 09:36:53;;;;;;;8.37;5.73;;;;;;;6.64;97.79;100814.84;4962680;28;20196;-82
2022/02/03 09:39:26;;;;;;;7.03;6.17;;;;;;;6.63;98.12;100812.28;5030274;28;20319;-83
2022/02/03 09:51:21;;;;;;;8.90;6.63;;;;;;;6.72;97.97;100790.69;5025529;28;20317;-83
2022/02/03 09:54:12;;;;;;;10.00;6.53;;;;;;;6.75;97.84;100794.06;5024721;28;20669;-82
2022/02/03 09:59:33;;;;;;;9.07;6.87;;;;;;;6.83;98.04;100791.91;5025519;28;20241;-83
2022/02/03 10:02:08;;;;;;;8.93;6.87;;;;;;;6.89;97.95;100794.28;5026534;28;20198;-82
2022/02/03 10:04:43;;;;;;;7.83;6.00;;;;;;;6.91;97.67;100803.03;5031161;28;20198;-83
2022/02/03 10:07:18;;;;;;;8.60;6.97;;;;;;;6.91;97.82;100800.38;5024598;28;20297;-83
2022/02/03 10:09:46;;;;;;;8.57;5.40;;;;;;;6.94;98.46;100802.03;5023665;28;20626;-83
2022/02/03 10:12:14;;;;;;;10.27;7.20;;;;;;;6.95;97.51;100799.31;5027146;28;20213;-82
2022/02/03 10:14:43;;;;;;;8.60;6.37;;;;;;;6.95;97.54;100807.25;5028468;28;20619;-82
2022/02/03 10:17:11;;;;;;;9.87;7.00;;;;;;;6.95;97.91;100796.66;5019401;28;20207;-83
2022/02/03 10:19:41;;;;;;;8.47;6.17;;;;;;;6.95;97.65;100807.25;5022753;28;20230;-83
2022/02/03 10:22:18;;;;;;;8.27;6.63;;;;;;;6.95;97.62;100809.03;5020360;28;20204;-83
2022/02/03 10:24:48;;;;;;;8.70;6.43;;;;;;;6.99;97.47;100796.53;5025031;28;20661;-83
2022/02/03 10:27:25;;;;;;;9.40;6.60;;;;;;;6.99;96.88;100799.19;5023565;28;20658;-83
2022/02/03 10:30:08;;;;;;;9.73;6.53;;;;;;;7.00;97.53;100803.50;5021467;28;20257;-82
2022/02/03 10:32:38;;;;;;;8.13;6.63;;;;;;;6.97;97.60;100794.81;5025236;28;20240;-83
2022/02/03 10:35:17;;;;;;;8.37;6.90;;;;;;;6.99;97.40;100788.59;5028729;28;20552;-83
2022/02/03 10:37:49;;;;;;;10.53;6.57;;;;;;;7.01;96.95;100790.19;5024091;28;20236;-83
2022/02/03 10:40:43;;;;;;;10.23;7.40;;;;;;;7.01;96.75;100786.69;5025145;28;20649;-83
2022/02/03 10:43:34;;;;;;;11.73;7.90;;;;;;;7.03;96.35;100787.47;5026525;28;20214;-83
2022/02/03 10:46:34;;;;;;;10.17;7.50;;;;;;;7.06;96.20;100790.00;5028349;28;20225;-83
2022/02/03 10:52:14;;;;;;;11.03;7.20;;;;;;;7.04;96.90;100768.03;5025032;28;20207;-83
2022/02/03 10:55:02;;;;;;;11.33;7.10;;;;;;;7.05;96.47;100775.03;5026202;28;20233;-83
2022/02/03 11:00:39;;;;;;;8.87;6.77;;;;;;;7.05;96.14;100762.66;5025345;28;20198;-83
2022/02/03 11:03:16;;;;;;;11.97;7.03;;;;;;;7.07;96.09;100767.88;5022297;28;20207;-83
2022/02/03 11:05:57;;;;;;;9.83;6.40;;;;;;;7.08;96.38;100764.31;5025899;28;20270;-83
2022/02/03 11:08:29;;;;;;;10.40;6.77;;;;;;;7.10;95.89;100757.16;5020551;28;20225;-82
2022/02/03 11:11:01;;;;;;;9.97;6.67;;;;;;;7.12;95.61;100758.81;5023571;28;20278;-83
2022/02/03 11:13:32;;;;;;;9.47;6.70;;;;;;;7.14;96.48;100769.31;5030209;28;20731;-82
2022/02/03 11:16:02;;;;;;;9.13;6.60;;;;;;;7.15;95.47;100750.72;5024388;28;20633;-83
2022/02/03 11:18:30;;;;;;;9.67;6.77;;;;;;;7.18;95.83;100749.69;5024848;28;20229;-83
2022/02/03 11:20:59;;;;;;;8.73;6.43;;;;;;;7.19;95.30;100746.09;5026575;28;20256;-83
2022/02/03 11:23:34;;;;;;;8.10;6.13;;;;;;;7.25;96.12;100753.75;5026521;28;20215;-83
2022/02/03 11:26:14;;;;;;;9.33;6.60;;;;;;;7.26;95.76;100747.53;5025907;28;20194;-83
2022/02/03 11:29:04;;;;;;;7.63;6.10;;;;;;;7.26;95.06;100745.75;5023579;28;20218;-83
2022/02/03 11:34:52;;;;;;;9.17;5.77;;;;;;;7.31;95.48;100750.84;5023500;28;20199;-82
2022/02/03 11:37:48;;;;;;;8.03;5.40;;;;;;;7.33;94.96;100738.38;5025420;28;20210;-82
2022/02/03 11:40:33;;;;;;;8.07;6.17;;;;;;;7.33;95.34;100725.13;5017936;28;20195;-83
2022/02/03 11:46:16;;;;;;;8.30;6.10;;;;;;;7.37;95.00;100728.47;5000611;28;20206;-83
2022/02/03 11:57:38;;;;;;;9.03;6.57;;;;;;;7.43;94.64;100709.63;5017560;28;20575;-83
2022/02/03 12:12:16;;;;;;;7.83;5.77;;;;;;;7.48;94.07;100683.75;5029332;28;20215;-83
2022/02/03 12:17:52;;;;;;;8.30;6.27;;;;;;;7.48;93.61;100663.41;5021397;28;20213;-83
2022/02/03 12:20:35;;;;;;;8.90;6.37;;;;;;;7.47;93.77;100667.00;5024055;28;20203;-83
2022/02/03 12:23:13;;;;;;;9.07;6.47;;;;;;;7.49;93.73;100659.84;5022903;28;20214;-83
2022/02/03 12:25:56;;;;;;;8.53;6.10;;;;;;;7.49;93.20;100659.84;5020938;28;20642;-83
2022/02/03 12:28:33;;;;;;;7.60;6.03;;;;;;;7.49;93.69;100657.19;5022638;28;20222;-83
2022/02/03 12:39:56;;;;;;;17.90;15.87;;;;;;;7.53;92.72;100656.06;5007117;28;20231;-83
2022/02/03 12:45:22;;;;;;;18.87;16.03;;;;;;;7.56;92.64;100663.03;4985770;28;20202;-83
2022/02/03 12:47:51;;;;;;;27.43;24.50;;;;;;;7.56;93.22;100652.41;5021221;28;20313;-84
2022/02/03 12:50:24;;;;;;;28.47;25.03;;;;;;;7.57;92.58;100639.09;5023205;28;20293;-83
2022/02/03 12:52:51;;;;;;;44.87;37.23;;;;;;;7.59;92.97;100633.72;5017547;28;20205;-84
2022/02/03 12:55:23;;;;;;;14.70;11.97;;;;;;;7.60;92.31;100633.63;5023405;28;20226;-84
2022/02/03 12:57:50;;;;;;;9.13;7.23;;;;;;;7.63;92.41;100640.56;5022837;28;20246;-83
2022/02/03 13:00:25;;;;;;;11.00;8.47;;;;;;;7.64;92.63;100637.84;5027045;28;20657;-84
2022/02/03 13:02:54;;;;;;;11.57;7.57;;;;;;;7.65;91.93;100623.66;5028056;28;20216;-83
2022/02/03 13:05:24;;;;;;;11.27;8.83;;;;;;;7.67;92.19;100620.94;5030850;28;20226;-84
2022/02/03 13:07:53;;;;;;;12.47;11.23;;;;;;;7.69;92.03;100620.84;5025747;28;20250;-83
2022/02/03 13:10:24;;;;;;;14.07;12.50;;;;;;;7.70;91.75;100614.63;5028203;28;20700;-84
2022/02/03 13:13:00;;;;;;;11.40;8.13;;;;;;;7.70;91.52;100609.31;5021213;28;20206;-85
2022/02/03 13:15:32;;;;;;;13.03;7.90;;;;;;;7.72;91.74;100612.72;5024593;28;20683;-84
2022/02/03 13:18:01;;;;;;;11.23;7.63;;;;;;;7.73;92.42;100609.13;5024440;28;20238;-84
2022/02/03 13:20:39;;;;;;;9.50;7.27;;;;;;;7.73;91.71;100599.38;5030938;28;20302;-84
2022/02/03 13:23:11;;;;;;;12.30;9.03;;;;;;;7.75;92.25;100601.97;5026702;28;20218;-83
2022/02/03 13:25:48;;;;;;;14.30;9.50;;;;;;;7.74;92.13;100601.09;5025992;28;20215;-84
2022/02/03 13:28:19;;;;;;;12.20;8.37;;;;;;;7.74;91.87;100602.91;5022497;28;20222;-84
2022/02/03 13:30:51;;;;;;;11.67;7.17;;;;;;;7.73;91.92;100595.88;5027613;28;20206;-84
2022/02/03 13:33:24;;;;;;;15.63;11.03;;;;;;;7.73;91.41;100588.78;5031036;28;20225;-84
2022/02/03 13:36:00;;;;;;;14.67;10.40;;;;;;;7.73;91.98;100588.78;5030474;28;20202;-84
2022/02/03 13:38:37;;;;;;;14.40;10.27;;;;;;;7.75;92.09;100583.41;5030061;28;20257;-84
2022/02/03 13:41:11;;;;;;;13.70;9.90;;;;;;;7.73;91.63;100580.84;5022337;28;20245;-83
2022/02/03 13:43:42;;;;;;;13.30;8.67;;;;;;;7.74;92.04;100566.63;5029758;28;20206;-83
2022/02/03 13:46:10;;;;;;;14.00;9.47;;;;;;;7.74;92.49;100565.78;5030251;28;20731;-83
2022/02/03 13:48:41;;;;;;;12.80;9.00;;;;;;;7.74;92.06;100561.34;5024038;28;20218;-83
2022/02/03 13:51:10;;;;;;;13.00;8.67;;;;;;;7.75;91.74;100564.84;5025879;28;20289;-83
2022/02/03 13:53:42;;;;;;;17.20;10.83;;;;;;;7.73;91.82;100556.97;5026760;28;20257;-84
2022/02/03 14:15:56;;;;;;;15.43;12.47;;;;;;;7.67;92.78;100533.47;5025234;28;20242;-84
2022/02/03 14:18:35;;;;;;;10.37;8.17;;;;;;;7.68;93.46;100531.66;5030010;28;20230;-84
2022/02/03 14:21:04;;;;;;;7.97;7.10;;;;;;;7.66;93.33;100529.97;5020496;28;20205;-84
2022/02/03 14:29:00;;;;;;;7.20;6.20;;;;;;;7.66;92.65;100521.16;5025848;28;20652;-83
2022/02/03 14:31:27;;;;;;;6.20;5.07;;;;;;;7.66;93.20;100522.00;5031499;28;20202;-83
2022/02/03 14:34:00;;;;;;;11.43;9.67;;;;;;;7.65;93.58;100517.63;5026275;28;20649;-83
2022/02/03 14:36:30;;;;;;;6.00;4.77;;;;;;;7.64;93.71;100513.28;5022274;28;20202;-83
2022/02/03 14:39:09;;;;;;;6.30;4.70;;;;;;;7.63;93.83;100508.91;5027489;28;20269;-83
2022/02/03 14:41:39;;;;;;;3.43;2.97;;;;;;;7.64;93.79;100507.97;5025437;28;20279;-84
2022/02/03 14:44:07;;;;;;;5.93;4.20;;;;;;;7.62;92.99;100507.19;5025594;28;20238;-84
2022/02/03 14:46:34;;;;;;;3.70;2.93;;;;;;;7.58;94.20;100505.63;5019318;28;20216;-84
2022/02/03 14:49:00;;;;;;;6.57;5.90;;;;;;;7.57;94.40;100509.22;5028276;28;20246;-84
2022/02/03 14:51:31;;;;;;;6.20;5.60;;;;;;;7.58;93.79;100504.78;5029763;28;20221;-84
2022/02/03 14:58:01;;;;;;;5.77;5.27;;;;;;;7.55;94.46;100511.09;5026363;28;20271;-83
2022/02/03 14:59:29;;;;;;;7.87;6.60;;;;;;;7.54;94.04;100496.13;5025845;28;20234;-83
2022/02/03 15:01:56;;;;;;;6.07;5.57;;;;;;;7.54;94.66;100498.78;5024707;28;20209;-84
2022/02/03 15:04:28;;;;;;;3.27;2.30;;;;;;;7.54;94.05;100501.44;5027732;28;20206;-84
2022/02/03 15:06:58;;;;;;;4.40;2.77;;;;;;;7.51;94.78;100504.28;5029754;28;20210;-83
2022/02/03 15:12:24;;;;;;;4.40;3.67;;;;;;;7.46;94.99;100505.44;5006798;22;20225;-71
2022/02/03 15:17:43;;;;;;;6.90;6.20;;;;;;;7.40;95.12;100496.00;5020640;28;20250;-69
2022/02/03 15:20:10;;;;;;;8.40;6.00;;;;;;;7.38;94.68;100495.22;5022510;28;20231;-70
2022/02/03 15:22:37;;;;;;;7.47;6.70;;;;;;;7.36;94.75;100502.41;5013789;28;20669;-70
2022/02/03 15:25:05;;;;;;;6.50;5.90;;;;;;;7.36;94.44;100504.19;5013666;28;20221;-70
2022/02/03 15:27:32;;;;;;;6.40;5.80;;;;;;;7.34;94.57;100501.66;5069535;23;20230;-72
2022/02/03 15:30:02;;;;;;;6.87;6.17;;;;;;;7.34;95.35;100506.09;5000866;28;20203;-71
2022/02/03 15:32:29;;;;;;;6.73;5.63;;;;;;;7.32;95.52;100499.09;5000038;28;22275;-72
2022/02/03 15:34:55;;;;;;;8.17;7.37;;;;;;;7.32;94.81;100506.19;5003792;28;20211;-72
2022/02/03 15:37:22;;;;;;;8.70;7.90;;;;;;;7.30;95.15;100500.94;4998416;28;20231;-72
2022/02/03 15:39:51;;;;;;;9.83;8.83;;;;;;;7.29;95.35;100496.59;4993932;28;20231;-74
2022/02/03 15:42:24;;;;;;;9.07;8.17;;;;;;;7.27;95.15;100487.88;4992972;28;20207;-72
2022/02/03 15:44:53;;;;;;;10.00;8.80;;;;;;;7.25;95.20;100488.88;4995238;28;20682;-72
2022/02/03 15:47:26;;;;;;;17.10;13.80;;;;;;;7.22;94.91;100483.72;4994930;28;20911;-72
2022/02/03 15:50:38;;;;;;;11.90;10.60;;;;;;;7.18;94.48;100493.63;4996943;28;20203;-72
2022/02/03 16:01:33;;;;;;;13.17;10.73;;;;;;;7.03;94.22;100482.97;4996215;28;20295;-72
2022/02/03 16:04:20;;;;;;;12.17;10.17;;;;;;;7.00;94.87;100485.75;4991293;28;20520;-72
2022/02/03 16:18:06;;;;;;;13.10;10.50;;;;;;;6.92;94.13;100489.69;4997425;28;20611;-71
2022/02/03 16:20:38;;;;;;;14.57;12.00;;;;;;;6.91;94.39;100487.97;4997467;28;20227;-71
2022/02/03 16:23:17;;;;;;;14.27;11.43;;;;;;;6.91;93.90;100493.25;4997328;28;20302;-72
2022/02/03 16:26:37;;;;;;;13.93;12.10;;;;;;;6.90;93.97;100488.03;4997742;28;20241;-72
2022/02/03 16:40:50;;;;;;;13.43;11.27;;;;;;;6.87;94.39;100477.59;4996269;28;20696;-72
2022/02/03 16:51:24;;;;;;;15.23;12.97;;;;;;;6.77;93.26;100466.63;4998520;28;20577;-72
2022/02/03 16:53:50;;;;;;;16.03;13.27;;;;;;;6.77;93.25;100460.50;4993914;28;20711;-71
2022/02/03 16:56:17;;;;;;;24.57;19.90;;;;;;;6.75;93.25;100459.69;4993300;28;20218;-71
2022/02/03 16:58:46;;;;;;;16.13;14.43;;;;;;;6.74;93.65;100450.06;4993231;28;20230;-71
2022/02/03 17:01:12;;;;;;;14.80;11.63;;;;;;;6.72;93.49;100443.97;4995259;28;20673;-74
2022/02/03 17:03:40;;;;;;;15.63;12.63;;;;;;;6.68;93.29;100448.56;4992627;28;20211;-71
2022/02/03 17:06:07;;;;;;;16.83;13.20;;;;;;;6.66;92.89;100445.13;4994261;28;20207;-72
2022/02/03 17:08:34;;;;;;;16.67;14.43;;;;;;;6.64;93.14;100436.41;4996881;28;20234;-70
2022/02/03 17:11:01;;;;;;;12.13;10.10;;;;;;;6.63;93.02;100429.41;4991250;28;20235;-73
2022/02/03 17:13:27;;;;;;;15.13;11.47;;;;;;;6.61;93.19;100436.59;4994066;28;20213;-73
2022/02/03 17:15:54;;;;;;;15.13;12.80;;;;;;;6.61;92.63;100433.94;4995290;28;20213;-72
2022/02/03 17:18:21;;;;;;;12.23;9.87;;;;;;;6.59;92.81;100439.31;4998652;28;20288;-73
2022/02/03 17:20:48;;;;;;;10.60;8.80;;;;;;;6.61;92.90;100433.94;4999609;28;20237;-72
2022/02/03 17:23:19;;;;;;;12.37;10.10;;;;;;;6.60;92.27;100432.22;4995924;28;20207;-72
2022/02/03 17:25:47;;;;;;;13.47;10.57;;;;;;;6.61;92.16;100431.28;4996443;28;20203;-73
2022/02/03 17:28:19;;;;;;;12.43;10.63;;;;;;;6.60;91.78;100421.66;4995480;28;20732;-71
2022/02/03 17:30:51;;;;;;;12.60;9.10;;;;;;;6.57;90.99;100425.31;4995321;28;20206;-72
2022/02/03 18:07:07;;;;;;;11.40;8.67;;;;;;;6.44;86.64;100437.44;4994466;28;20241;-72
2022/02/03 18:09:49;;;;;;;11.10;8.70;;;;;;;6.44;86.86;100432.16;4995334;28;20665;-72
2022/02/03 18:26:39;;;;;;;10.77;8.30;;;;;;;6.45;85.82;100440.94;5001635;28;20221;-71
2022/02/03 18:32:12;;;;;;;14.73;9.33;;;;;;;6.47;85.60;100447.84;5002841;28;20203;-72
2022/02/03 18:37:32;;;;;;;10.47;8.27;;;;;;;6.48;85.65;100449.56;4987291;28;20226;-71
2022/02/03 18:50:59;;;;;;;11.73;9.07;;;;;;;6.43;85.80;100438.38;4991981;28;20676;-72
2022/02/03 18:53:31;;;;;;;11.13;9.53;;;;;;;6.42;85.87;100427.84;4995970;28;20211;-71
2022/02/03 18:56:06;;;;;;;12.23;9.10;;;;;;;6.40;85.72;100427.94;4992419;28;20210;-71
2022/02/03 18:58:42;;;;;;;16.23;9.60;;;;;;;6.38;86.15;100432.44;4999931;28;20580;-73
2022/02/03 19:01:41;;;;;;;13.80;11.40;;;;;;;6.37;86.29;100427.22;4994112;28;20657;-72
2022/02/03 19:10:17;;;;;;;11.50;9.50;;;;;;;6.33;86.62;100428.31;4993890;28;20241;-70
2022/02/03 19:24:26;;;;;;;12.50;9.07;;;;;;;6.29;87.24;100414.38;5074320;28;20211;-73
2022/02/03 19:57:34;;;;;;;13.30;10.43;;;;;;;6.14;87.58;100415.13;5053165;28;20734;-70
2022/02/03 20:05:38;;;;;;;14.57;11.60;;;;;;;6.12;87.47;100415.19;5014774;28;20206;-70